sensor_id;sensor_type;location;lat;lon;timestamp;P1;durP1;ratioP1;P2;durP2;ratioP2
3589;SDS011;1809;48.470;9.226;2024-01-30T00:01:39;16.50;;;7.80;;
3589;SDS011;1809;48.470;9.226;2024-01-30T00:04:04;11.57;;;8.00;;
3589;SDS011;1809;48.470;9.226;2024-01-30T00:06:30;10.50;;;7.33;;
3589;SDS011;1809;48.470;9.226;2024-01-30T00:08:56;14.57;;;8.37;;
3589;SDS011;1809;48.470;9.226;2024-01-30T00:11:22;16.43;;;8.37;;
3589;SDS011;1809;48.470;9.226;2024-01-30T00:13:47;9.67;;;8.00;;
3589;SDS011;1809;48.470;9.226;2024-01-30T00:16:19;13.77;;;8.70;;
3589;SDS011;1809;48.470;9.226;2024-01-30T00:18:45;12.90;;;9.37;;
3589;SDS011;1809;48.470;9.226;2024-01-30T00:21:11;11.83;;;8.07;;
3589;SDS011;1809;48.470;9.226;2024-01-30T00:23:36;10.83;;;7.53;;
3589;SDS011;1809;48.470;9.226;2024-01-30T00:26:01;11.97;;;7.80;;
3589;SDS011;1809;48.470;9.226;2024-01-30T00:28:27;12.97;;;8.53;;
3589;SDS011;1809;48.470;9.226;2024-01-30T00:30:52;9.13;;;7.37;;
3589;SDS011;1809;48.470;9.226;2024-01-30T00:33:18;9.90;;;6.93;;
3589;SDS011;1809;48.470;9.226;2024-01-30T00:35:43;9.53;;;6.67;;
3589;SDS011;1809;48.470;9.226;2024-01-30T00:38:08;9.07;;;7.20;;
3589;SDS011;1809;48.470;9.226;2024-01-30T00:40:33;10.47;;;8.70;;
3589;SDS011;1809;48.470;9.226;2024-01-30T00:42:59;10.20;;;7.77;;
3589;SDS011;1809;48.470;9.226;2024-01-30T00:45:25;10.67;;;7.87;;
3589;SDS011;1809;48.470;9.226;2024-01-30T00:47:50;15.00;;;8.03;;
3589;SDS011;1809;48.470;9.226;2024-01-30T00:50:15;9.17;;;7.30;;
3589;SDS011;1809;48.470;9.226;2024-01-30T00:52:41;14.03;;;9.03;;
3589;SDS011;1809;48.470;9.226;2024-01-30T00:55:07;11.73;;;8.57;;
3589;SDS011;1809;48.470;9.226;2024-01-30T00:57:32;14.30;;;8.77;;
3589;SDS011;1809;48.470;9.226;2024-01-30T00:59:58;12.47;;;8.10;;
3589;SDS011;1809;48.470;9.226;2024-01-30T01:02:23;12.30;;;9.07;;
3589;SDS011;1809;48.470;9.226;2024-01-30T01:04:48;15.20;;;9.70;;
3589;SDS011;1809;48.470;9.226;2024-01-30T01:07:14;17.40;;;9.90;;
3589;SDS011;1809;48.470;9.226;2024-01-30T01:09:39;13.43;;;8.40;;
3589;SDS011;1809;48.470;9.226;2024-01-30T01:12:04;13.90;;;9.00;;
3589;SDS011;1809;48.470;9.226;2024-01-30T01:14:30;11.00;;;8.00;;
3589;SDS011;1809;48.470;9.226;2024-01-30T01:16:55;12.67;;;8.27;;
3589;SDS011;1809;48.470;9.226;2024-01-30T01:19:21;10.53;;;8.10;;
3589;SDS011;1809;48.470;9.226;2024-01-30T01:21:49;14.47;;;9.60;;
3589;SDS011;1809;48.470;9.226;2024-01-30T01:24:14;15.43;;;8.97;;
3589;SDS011;1809;48.470;9.226;2024-01-30T01:26:40;12.27;;;8.37;;
3589;SDS011;1809;48.470;9.226;2024-01-30T01:29:06;13.77;;;8.80;;
3589;SDS011;1809;48.470;9.226;2024-01-30T01:31:35;14.57;;;8.67;;
3589;SDS011;1809;48.470;9.226;2024-01-30T01:34:04;10.97;;;7.90;;
3589;SDS011;1809;48.470;9.226;2024-01-30T01:36:30;14.00;;;8.47;;
3589;SDS011;1809;48.470;9.226;2024-01-30T01:38:56;13.80;;;9.53;;
3589;SDS011;1809;48.470;9.226;2024-01-30T01:41:21;12.13;;;9.60;;
3589;SDS011;1809;48.470;9.226;2024-01-30T01:43:46;14.10;;;8.97;;
3589;SDS011;1809;48.470;9.226;2024-01-30T01:46:12;14.70;;;9.00;;
3589;SDS011;1809;48.470;9.226;2024-01-30T01:48:37;18.23;;;8.40;;
3589;SDS011;1809;48.470;9.226;2024-01-30T01:51:04;12.30;;;8.77;;
3589;SDS011;1809;48.470;9.226;2024-01-30T01:53:30;14.70;;;8.93;;
3589;SDS011;1809;48.470;9.226;2024-01-30T01:55:56;13.90;;;9.30;;
3589;SDS011;1809;48.470;9.226;2024-01-30T01:58:22;12.60;;;8.60;;
3589;SDS011;1809;48.470;9.226;2024-01-30T02:00:48;15.10;;;9.60;;
3589;SDS011;1809;48.470;9.226;2024-01-30T02:03:16;13.90;;;9.00;;
3589;SDS011;1809;48.470;9.226;2024-01-30T02:05:43;13.40;;;9.30;;
3589;SDS011;1809;48.470;9.226;2024-01-30T02:08:08;9.07;;;8.07;;
3589;SDS011;1809;48.470;9.226;2024-01-30T02:10:34;12.70;;;8.60;;
3589;SDS011;1809;48.470;9.226;2024-01-30T02:12:59;13.90;;;9.30;;
3589;SDS011;1809;48.470;9.226;2024-01-30T02:15:24;10.13;;;7.53;;
3589;SDS011;1809;48.470;9.226;2024-01-30T02:17:50;16.30;;;8.70;;
3589;SDS011;1809;48.470;9.226;2024-01-30T02:20:15;12.43;;;9.40;;
3589;SDS011;1809;48.470;9.226;2024-01-30T02:22:40;12.80;;;9.43;;
3589;SDS011;1809;48.470;9.226;2024-01-30T02:25:07;12.13;;;7.50;;
3589;SDS011;1809;48.470;9.226;2024-01-30T02:27:33;12.70;;;9.33;;
3589;SDS011;1809;48.470;9.226;2024-01-30T02:29:58;13.07;;;9.10;;
3589;SDS011;1809;48.470;9.226;2024-01-30T02:32:24;10.83;;;8.80;;
3589;SDS011;1809;48.470;9.226;2024-01-30T02:34:49;15.70;;;9.00;;
3589;SDS011;1809;48.470;9.226;2024-01-30T02:37:16;12.13;;;8.43;;
3589;SDS011;1809;48.470;9.226;2024-01-30T02:39:41;12.77;;;7.90;;
3589;SDS011;1809;48.470;9.226;2024-01-30T02:42:07;14.63;;;8.47;;
3589;SDS011;1809;48.470;9.226;2024-01-30T02:44:32;11.50;;;7.10;;
3589;SDS011;1809;48.470;9.226;2024-01-30T02:46:57;12.80;;;8.20;;
3589;SDS011;1809;48.470;9.226;2024-01-30T02:49:22;8.93;;;7.40;;
3589;SDS011;1809;48.470;9.226;2024-01-30T02:51:48;11.10;;;7.60;;
3589;SDS011;1809;48.470;9.226;2024-01-30T02:54:13;13.60;;;7.60;;
3589;SDS011;1809;48.470;9.226;2024-01-30T02:56:39;14.10;;;8.60;;
3589;SDS011;1809;48.470;9.226;2024-01-30T02:59:04;9.07;;;7.30;;
3589;SDS011;1809;48.470;9.226;2024-01-30T03:01:30;12.43;;;8.00;;
3589;SDS011;1809;48.470;9.226;2024-01-30T03:03:56;10.73;;;7.37;;
3589;SDS011;1809;48.470;9.226;2024-01-30T03:06:22;9.13;;;7.10;;
3589;SDS011;1809;48.470;9.226;2024-01-30T03:08:47;11.77;;;7.10;;
3589;SDS011;1809;48.470;9.226;2024-01-30T03:11:13;10.53;;;6.60;;
3589;SDS011;1809;48.470;9.226;2024-01-30T03:13:38;9.50;;;7.10;;
3589;SDS011;1809;48.470;9.226;2024-01-30T03:16:04;8.50;;;6.40;;
3589;SDS011;1809;48.470;9.226;2024-01-30T03:18:29;10.77;;;6.47;;
3589;SDS011;1809;48.470;9.226;2024-01-30T03:20:54;11.30;;;7.30;;
3589;SDS011;1809;48.470;9.226;2024-01-30T03:23:20;7.90;;;5.57;;
3589;SDS011;1809;48.470;9.226;2024-01-30T03:25:45;9.27;;;6.97;;
3589;SDS011;1809;48.470;9.226;2024-01-30T03:28:10;6.77;;;5.80;;
3589;SDS011;1809;48.470;9.226;2024-01-30T03:30:36;8.83;;;7.00;;
3589;SDS011;1809;48.470;9.226;2024-01-30T03:33:01;8.77;;;6.70;;
3589;SDS011;1809;48.470;9.226;2024-01-30T03:35:26;7.90;;;5.43;;
3589;SDS011;1809;48.470;9.226;2024-01-30T03:37:52;7.50;;;5.87;;
3589;SDS011;1809;48.470;9.226;2024-01-30T03:40:17;8.50;;;6.20;;
3589;SDS011;1809;48.470;9.226;2024-01-30T03:42:42;8.93;;;6.23;;
3589;SDS011;1809;48.470;9.226;2024-01-30T03:45:08;6.13;;;5.57;;
3589;SDS011;1809;48.470;9.226;2024-01-30T03:47:33;8.93;;;5.73;;
3589;SDS011;1809;48.470;9.226;2024-01-30T03:49:59;10.33;;;5.60;;
3589;SDS011;1809;48.470;9.226;2024-01-30T03:52:24;12.00;;;6.70;;
3589;SDS011;1809;48.470;9.226;2024-01-30T03:54:49;12.10;;;6.60;;
3589;SDS011;1809;48.470;9.226;2024-01-30T03:57:15;9.17;;;6.70;;
3589;SDS011;1809;48.470;9.226;2024-01-30T03:59:43;8.20;;;5.67;;
3589;SDS011;1809;48.470;9.226;2024-01-30T04:02:09;9.13;;;6.50;;
3589;SDS011;1809;48.470;9.226;2024-01-30T04:04:35;7.17;;;5.97;;
3589;SDS011;1809;48.470;9.226;2024-01-30T04:07:01;7.60;;;6.17;;
3589;SDS011;1809;48.470;9.226;2024-01-30T04:09:27;9.70;;;6.30;;
3589;SDS011;1809;48.470;9.226;2024-01-30T04:11:53;8.20;;;5.50;;
3589;SDS011;1809;48.470;9.226;2024-01-30T04:14:19;8.90;;;6.10;;
3589;SDS011;1809;48.470;9.226;2024-01-30T04:16:44;10.27;;;7.10;;
3589;SDS011;1809;48.470;9.226;2024-01-30T04:19:09;7.60;;;6.20;;
3589;SDS011;1809;48.470;9.226;2024-01-30T04:21:34;9.57;;;7.07;;
3589;SDS011;1809;48.470;9.226;2024-01-30T04:24:00;7.03;;;5.90;;
3589;SDS011;1809;48.470;9.226;2024-01-30T04:26:25;10.27;;;7.60;;
3589;SDS011;1809;48.470;9.226;2024-01-30T04:28:50;7.30;;;5.80;;
3589;SDS011;1809;48.470;9.226;2024-01-30T04:31:16;8.00;;;6.27;;
3589;SDS011;1809;48.470;9.226;2024-01-30T04:33:42;12.37;;;7.00;;
3589;SDS011;1809;48.470;9.226;2024-01-30T04:36:10;9.83;;;7.20;;
3589;SDS011;1809;48.470;9.226;2024-01-30T04:38:35;7.90;;;6.30;;
3589;SDS011;1809;48.470;9.226;2024-01-30T04:41:01;7.20;;;6.43;;
3589;SDS011;1809;48.470;9.226;2024-01-30T04:43:26;7.00;;;5.93;;
3589;SDS011;1809;48.470;9.226;2024-01-30T04:45:52;12.03;;;7.03;;
3589;SDS011;1809;48.470;9.226;2024-01-30T04:48:17;12.17;;;7.33;;
3589;SDS011;1809;48.470;9.226;2024-01-30T04:50:42;8.90;;;6.27;;
3589;SDS011;1809;48.470;9.226;2024-01-30T04:53:08;7.87;;;5.93;;
3589;SDS011;1809;48.470;9.226;2024-01-30T04:55:34;12.60;;;6.30;;
3589;SDS011;1809;48.470;9.226;2024-01-30T04:58:00;8.90;;;6.10;;
3589;SDS011;1809;48.470;9.226;2024-01-30T05:00:26;6.90;;;5.77;;
3589;SDS011;1809;48.470;9.226;2024-01-30T05:02:51;9.40;;;6.63;;
3589;SDS011;1809;48.470;9.226;2024-01-30T05:05:16;14.43;;;6.77;;
3589;SDS011;1809;48.470;9.226;2024-01-30T05:07:41;7.83;;;5.90;;
3589;SDS011;1809;48.470;9.226;2024-01-30T05:10:07;9.13;;;6.50;;
3589;SDS011;1809;48.470;9.226;2024-01-30T05:12:33;9.57;;;6.00;;
3589;SDS011;1809;48.470;9.226;2024-01-30T05:14:58;7.07;;;5.50;;
3589;SDS011;1809;48.470;9.226;2024-01-30T05:17:24;7.20;;;5.50;;
3589;SDS011;1809;48.470;9.226;2024-01-30T05:19:49;10.83;;;5.40;;
3589;SDS011;1809;48.470;9.226;2024-01-30T05:22:14;7.70;;;5.80;;
3589;SDS011;1809;48.470;9.226;2024-01-30T05:24:40;8.40;;;5.70;;
3589;SDS011;1809;48.470;9.226;2024-01-30T05:27:07;10.43;;;5.73;;
3589;SDS011;1809;48.470;9.226;2024-01-30T05:29:32;9.07;;;5.90;;
3589;SDS011;1809;48.470;9.226;2024-01-30T05:31:58;7.03;;;5.23;;
3589;SDS011;1809;48.470;9.226;2024-01-30T05:34:23;9.20;;;5.90;;
3589;SDS011;1809;48.470;9.226;2024-01-30T05:36:49;9.20;;;6.20;;
3589;SDS011;1809;48.470;9.226;2024-01-30T05:39:14;8.83;;;6.57;;
3589;SDS011;1809;48.470;9.226;2024-01-30T05:41:39;6.17;;;5.47;;
3589;SDS011;1809;48.470;9.226;2024-01-30T05:44:05;5.87;;;4.77;;
3589;SDS011;1809;48.470;9.226;2024-01-30T05:46:30;11.43;;;6.87;;
3589;SDS011;1809;48.470;9.226;2024-01-30T05:48:55;8.00;;;5.63;;
3589;SDS011;1809;48.470;9.226;2024-01-30T05:51:20;7.70;;;5.57;;
3589;SDS011;1809;48.470;9.226;2024-01-30T05:53:46;5.23;;;4.70;;
3589;SDS011;1809;48.470;9.226;2024-01-30T05:56:11;8.40;;;5.10;;
3589;SDS011;1809;48.470;9.226;2024-01-30T05:58:36;7.23;;;5.60;;
3589;SDS011;1809;48.470;9.226;2024-01-30T06:01:03;5.97;;;5.37;;
3589;SDS011;1809;48.470;9.226;2024-01-30T06:03:32;8.97;;;6.17;;
3589;SDS011;1809;48.470;9.226;2024-01-30T06:05:57;8.73;;;5.50;;
3589;SDS011;1809;48.470;9.226;2024-01-30T06:08:23;9.63;;;6.33;;
3589;SDS011;1809;48.470;9.226;2024-01-30T06:10:48;8.47;;;5.83;;
3589;SDS011;1809;48.470;9.226;2024-01-30T06:13:14;7.83;;;5.27;;
3589;SDS011;1809;48.470;9.226;2024-01-30T06:15:39;7.30;;;5.87;;
3589;SDS011;1809;48.470;9.226;2024-01-30T06:18:05;8.93;;;6.80;;
3589;SDS011;1809;48.470;9.226;2024-01-30T06:20:30;4.83;;;4.40;;
3589;SDS011;1809;48.470;9.226;2024-01-30T06:22:55;12.00;;;6.07;;
3589;SDS011;1809;48.470;9.226;2024-01-30T06:25:21;6.87;;;6.17;;
3589;SDS011;1809;48.470;9.226;2024-01-30T06:27:46;11.83;;;6.57;;
3589;SDS011;1809;48.470;9.226;2024-01-30T06:30:11;9.53;;;7.00;;
3589;SDS011;1809;48.470;9.226;2024-01-30T06:32:37;6.73;;;5.70;;
3589;SDS011;1809;48.470;9.226;2024-01-30T06:35:03;9.33;;;6.83;;
3589;SDS011;1809;48.470;9.226;2024-01-30T06:37:30;11.43;;;6.30;;
3589;SDS011;1809;48.470;9.226;2024-01-30T06:39:56;9.53;;;6.73;;
3589;SDS011;1809;48.470;9.226;2024-01-30T06:42:21;13.37;;;6.57;;
3589;SDS011;1809;48.470;9.226;2024-01-30T06:44:46;9.00;;;7.80;;
3589;SDS011;1809;48.470;9.226;2024-01-30T06:47:12;10.93;;;7.93;;
3589;SDS011;1809;48.470;9.226;2024-01-30T06:49:37;15.77;;;8.27;;
3589;SDS011;1809;48.470;9.226;2024-01-30T06:52:06;20.33;;;9.37;;
3589;SDS011;1809;48.470;9.226;2024-01-30T06:54:31;11.83;;;8.07;;
3589;SDS011;1809;48.470;9.226;2024-01-30T06:56:57;12.20;;;7.83;;
3589;SDS011;1809;48.470;9.226;2024-01-30T06:59:23;21.80;;;10.20;;
3589;SDS011;1809;48.470;9.226;2024-01-30T07:01:48;17.87;;;10.20;;
3589;SDS011;1809;48.470;9.226;2024-01-30T07:04:13;22.97;;;12.13;;
3589;SDS011;1809;48.470;9.226;2024-01-30T07:06:39;16.00;;;9.90;;
3589;SDS011;1809;48.470;9.226;2024-01-30T07:09:04;13.00;;;7.47;;
3589;SDS011;1809;48.470;9.226;2024-01-30T07:11:30;7.50;;;5.83;;
3589;SDS011;1809;48.470;9.226;2024-01-30T07:13:56;14.20;;;7.37;;
3589;SDS011;1809;48.470;9.226;2024-01-30T07:16:21;11.03;;;6.00;;
3589;SDS011;1809;48.470;9.226;2024-01-30T07:18:47;12.73;;;6.83;;
3589;SDS011;1809;48.470;9.226;2024-01-30T07:21:13;12.73;;;6.57;;
3589;SDS011;1809;48.470;9.226;2024-01-30T07:23:38;17.47;;;8.53;;
3589;SDS011;1809;48.470;9.226;2024-01-30T07:26:07;12.40;;;7.27;;
3589;SDS011;1809;48.470;9.226;2024-01-30T07:28:33;13.60;;;7.77;;
3589;SDS011;1809;48.470;9.226;2024-01-30T07:30:59;19.70;;;10.43;;
3589;SDS011;1809;48.470;9.226;2024-01-30T07:33:25;15.90;;;7.23;;
3589;SDS011;1809;48.470;9.226;2024-01-30T07:35:52;19.80;;;7.90;;
3589;SDS011;1809;48.470;9.226;2024-01-30T07:38:18;18.53;;;9.50;;
3589;SDS011;1809;48.470;9.226;2024-01-30T07:40:43;15.30;;;8.20;;
3589;SDS011;1809;48.470;9.226;2024-01-30T07:43:08;15.33;;;8.90;;
3589;SDS011;1809;48.470;9.226;2024-01-30T07:45:34;17.57;;;7.60;;
3589;SDS011;1809;48.470;9.226;2024-01-30T07:47:59;21.70;;;7.50;;
3589;SDS011;1809;48.470;9.226;2024-01-30T07:50:25;17.17;;;8.20;;
3589;SDS011;1809;48.470;9.226;2024-01-30T07:52:50;15.67;;;7.97;;
3589;SDS011;1809;48.470;9.226;2024-01-30T07:55:19;13.50;;;8.30;;
3589;SDS011;1809;48.470;9.226;2024-01-30T07:57:45;29.03;;;9.40;;
3589;SDS011;1809;48.470;9.226;2024-01-30T08:00:11;21.63;;;8.47;;
3589;SDS011;1809;48.470;9.226;2024-01-30T08:02:37;24.33;;;11.70;;
3589;SDS011;1809;48.470;9.226;2024-01-30T08:05:02;29.77;;;15.67;;
3589;SDS011;1809;48.470;9.226;2024-01-30T08:07:27;20.67;;;13.10;;
3589;SDS011;1809;48.470;9.226;2024-01-30T08:09:54;19.60;;;11.20;;
3589;SDS011;1809;48.470;9.226;2024-01-30T08:12:20;21.90;;;10.13;;
3589;SDS011;1809;48.470;9.226;2024-01-30T08:14:45;22.83;;;9.53;;
3589;SDS011;1809;48.470;9.226;2024-01-30T08:17:10;14.60;;;8.63;;
3589;SDS011;1809;48.470;9.226;2024-01-30T08:19:37;12.00;;;7.40;;
3589;SDS011;1809;48.470;9.226;2024-01-30T08:22:02;13.60;;;8.17;;
3589;SDS011;1809;48.470;9.226;2024-01-30T08:24:27;10.07;;;7.53;;
3589;SDS011;1809;48.470;9.226;2024-01-30T08:26:53;12.23;;;7.10;;
3589;SDS011;1809;48.470;9.226;2024-01-30T08:29:18;15.50;;;6.67;;
3589;SDS011;1809;48.470;9.226;2024-01-30T08:31:44;18.83;;;8.40;;
3589;SDS011;1809;48.470;9.226;2024-01-30T08:34:10;9.60;;;7.30;;
3589;SDS011;1809;48.470;9.226;2024-01-30T08:36:36;12.20;;;7.13;;
3589;SDS011;1809;48.470;9.226;2024-01-30T08:39:01;12.90;;;6.90;;
3589;SDS011;1809;48.470;9.226;2024-01-30T08:41:27;19.70;;;7.80;;
3589;SDS011;1809;48.470;9.226;2024-01-30T08:43:53;15.93;;;7.53;;
3589;SDS011;1809;48.470;9.226;2024-01-30T08:46:19;14.50;;;8.80;;
3589;SDS011;1809;48.470;9.226;2024-01-30T08:48:45;28.57;;;10.43;;
3589;SDS011;1809;48.470;9.226;2024-01-30T08:51:11;17.40;;;9.70;;
3589;SDS011;1809;48.470;9.226;2024-01-30T08:53:37;14.80;;;9.10;;
3589;SDS011;1809;48.470;9.226;2024-01-30T08:56:03;16.17;;;9.50;;
3589;SDS011;1809;48.470;9.226;2024-01-30T08:58:29;16.20;;;9.93;;
3589;SDS011;1809;48.470;9.226;2024-01-30T09:00:54;15.20;;;10.03;;
3589;SDS011;1809;48.470;9.226;2024-01-30T09:03:19;14.00;;;8.27;;
3589;SDS011;1809;48.470;9.226;2024-01-30T09:05:45;13.87;;;8.83;;
3589;SDS011;1809;48.470;9.226;2024-01-30T09:08:10;15.10;;;8.67;;
3589;SDS011;1809;48.470;9.226;2024-01-30T09:10:35;30.23;;;9.50;;
3589;SDS011;1809;48.470;9.226;2024-01-30T09:13:01;14.57;;;9.50;;
3589;SDS011;1809;48.470;9.226;2024-01-30T09:15:26;12.13;;;8.93;;
3589;SDS011;1809;48.470;9.226;2024-01-30T09:17:51;23.83;;;10.67;;
3589;SDS011;1809;48.470;9.226;2024-01-30T09:20:17;20.53;;;9.37;;
3589;SDS011;1809;48.470;9.226;2024-01-30T09:22:42;24.07;;;12.47;;
3589;SDS011;1809;48.470;9.226;2024-01-30T09:25:07;14.60;;;9.63;;
3589;SDS011;1809;48.470;9.226;2024-01-30T09:27:33;26.87;;;10.40;;
3589;SDS011;1809;48.470;9.226;2024-01-30T09:29:58;20.20;;;10.97;;
3589;SDS011;1809;48.470;9.226;2024-01-30T09:32:23;30.37;;;13.20;;
3589;SDS011;1809;48.470;9.226;2024-01-30T09:34:49;21.93;;;12.20;;
3589;SDS011;1809;48.470;9.226;2024-01-30T09:37:14;29.60;;;14.20;;
3589;SDS011;1809;48.470;9.226;2024-01-30T09:39:40;27.00;;;12.30;;
3589;SDS011;1809;48.470;9.226;2024-01-30T09:42:16;28.77;;;13.30;;
3589;SDS011;1809;48.470;9.226;2024-01-30T09:44:51;19.63;;;13.07;;
3589;SDS011;1809;48.470;9.226;2024-01-30T09:47:18;24.00;;;13.13;;
3589;SDS011;1809;48.470;9.226;2024-01-30T09:49:43;25.33;;;11.90;;
3589;SDS011;1809;48.470;9.226;2024-01-30T09:52:09;26.43;;;14.07;;
3589;SDS011;1809;48.470;9.226;2024-01-30T09:54:35;34.33;;;15.10;;
3589;SDS011;1809;48.470;9.226;2024-01-30T09:57:02;29.53;;;14.73;;
3589;SDS011;1809;48.470;9.226;2024-01-30T09:59:28;20.83;;;12.20;;
3589;SDS011;1809;48.470;9.226;2024-01-30T10:01:53;90.07;;;44.50;;
3589;SDS011;1809;48.470;9.226;2024-01-30T10:04:18;104.70;;;49.40;;
3589;SDS011;1809;48.470;9.226;2024-01-30T10:06:44;68.20;;;35.03;;
3589;SDS011;1809;48.470;9.226;2024-01-30T10:09:09;35.23;;;20.00;;
3589;SDS011;1809;48.470;9.226;2024-01-30T10:11:35;32.23;;;17.87;;
3589;SDS011;1809;48.470;9.226;2024-01-30T10:14:01;56.17;;;28.37;;
3589;SDS011;1809;48.470;9.226;2024-01-30T10:16:27;37.77;;;18.67;;
3589;SDS011;1809;48.470;9.226;2024-01-30T10:18:52;24.00;;;14.37;;
3589;SDS011;1809;48.470;9.226;2024-01-30T10:21:17;25.73;;;15.97;;
3589;SDS011;1809;48.470;9.226;2024-01-30T10:23:43;23.43;;;12.33;;
3589;SDS011;1809;48.470;9.226;2024-01-30T10:26:12;23.00;;;13.43;;
3589;SDS011;1809;48.470;9.226;2024-01-30T10:28:37;19.27;;;12.47;;
3589;SDS011;1809;48.470;9.226;2024-01-30T10:31:03;24.30;;;13.47;;
3589;SDS011;1809;48.470;9.226;2024-01-30T10:33:29;24.17;;;13.77;;
3589;SDS011;1809;48.470;9.226;2024-01-30T10:36:00;22.90;;;11.80;;
3589;SDS011;1809;48.470;9.226;2024-01-30T10:38:30;31.60;;;12.90;;
3589;SDS011;1809;48.470;9.226;2024-01-30T10:41:00;20.83;;;12.63;;
3589;SDS011;1809;48.470;9.226;2024-01-30T10:43:33;23.73;;;12.83;;
3589;SDS011;1809;48.470;9.226;2024-01-30T10:46:22;20.00;;;11.60;;
3589;SDS011;1809;48.470;9.226;2024-01-30T10:49:07;21.33;;;11.40;;
3589;SDS011;1809;48.470;9.226;2024-01-30T10:51:34;17.80;;;10.00;;
3589;SDS011;1809;48.470;9.226;2024-01-30T10:54:00;16.90;;;9.73;;
3589;SDS011;1809;48.470;9.226;2024-01-30T10:56:27;17.90;;;10.63;;
3589;SDS011;1809;48.470;9.226;2024-01-30T10:58:53;11.43;;;9.03;;
3589;SDS011;1809;48.470;9.226;2024-01-30T11:01:22;13.73;;;7.47;;
3589;SDS011;1809;48.470;9.226;2024-01-30T11:03:52;21.67;;;8.80;;
3589;SDS011;1809;48.470;9.226;2024-01-30T11:06:18;21.33;;;9.10;;
3589;SDS011;1809;48.470;9.226;2024-01-30T11:08:59;14.37;;;7.40;;
3589;SDS011;1809;48.470;9.226;2024-01-30T11:11:29;14.30;;;7.00;;
3589;SDS011;1809;48.470;9.226;2024-01-30T11:13:54;17.97;;;7.27;;
3589;SDS011;1809;48.470;9.226;2024-01-30T11:16:20;9.00;;;6.47;;
3589;SDS011;1809;48.470;9.226;2024-01-30T11:18:49;11.20;;;6.60;;
3589;SDS011;1809;48.470;9.226;2024-01-30T11:21:16;10.73;;;8.37;;
3589;SDS011;1809;48.470;9.226;2024-01-30T11:23:42;19.43;;;9.33;;
3589;SDS011;1809;48.470;9.226;2024-01-30T11:26:10;17.67;;;9.70;;
3589;SDS011;1809;48.470;9.226;2024-01-30T11:28:35;17.00;;;9.33;;
3589;SDS011;1809;48.470;9.226;2024-01-30T11:31:06;13.40;;;8.20;;
3589;SDS011;1809;48.470;9.226;2024-01-30T11:33:32;12.90;;;7.37;;
3589;SDS011;1809;48.470;9.226;2024-01-30T11:35:58;16.67;;;7.70;;
3589;SDS011;1809;48.470;9.226;2024-01-30T11:38:27;12.27;;;7.23;;
3589;SDS011;1809;48.470;9.226;2024-01-30T11:40:56;17.10;;;8.00;;
3589;SDS011;1809;48.470;9.226;2024-01-30T11:43:22;10.83;;;7.97;;
3589;SDS011;1809;48.470;9.226;2024-01-30T11:45:48;11.50;;;8.57;;
3589;SDS011;1809;48.470;9.226;2024-01-30T11:48:14;24.97;;;14.40;;
3589;SDS011;1809;48.470;9.226;2024-01-30T11:50:39;11.63;;;6.97;;
3589;SDS011;1809;48.470;9.226;2024-01-30T11:53:09;8.40;;;6.90;;
3589;SDS011;1809;48.470;9.226;2024-01-30T11:55:35;15.23;;;7.83;;
3589;SDS011;1809;48.470;9.226;2024-01-30T11:58:02;15.10;;;7.20;;
3589;SDS011;1809;48.470;9.226;2024-01-30T12:00:29;13.53;;;8.33;;
3589;SDS011;1809;48.470;9.226;2024-01-30T12:02:55;10.90;;;7.87;;
3589;SDS011;1809;48.470;9.226;2024-01-30T12:05:22;18.33;;;8.37;;
3589;SDS011;1809;48.470;9.226;2024-01-30T12:07:48;12.00;;;7.10;;
3589;SDS011;1809;48.470;9.226;2024-01-30T12:10:13;21.73;;;9.90;;
3589;SDS011;1809;48.470;9.226;2024-01-30T12:12:39;35.03;;;13.00;;
3589;SDS011;1809;48.470;9.226;2024-01-30T12:15:07;19.20;;;11.30;;
3589;SDS011;1809;48.470;9.226;2024-01-30T12:17:33;21.80;;;11.83;;
3589;SDS011;1809;48.470;9.226;2024-01-30T12:20:05;15.90;;;10.80;;
3589;SDS011;1809;48.470;9.226;2024-01-30T12:22:43;15.50;;;11.60;;
3589;SDS011;1809;48.470;9.226;2024-01-30T12:25:13;20.20;;;10.67;;
3589;SDS011;1809;48.470;9.226;2024-01-30T12:27:41;12.70;;;7.30;;
3589;SDS011;1809;48.470;9.226;2024-01-30T12:30:08;32.77;;;24.50;;
3589;SDS011;1809;48.470;9.226;2024-01-30T12:32:35;16.50;;;9.20;;
3589;SDS011;1809;48.470;9.226;2024-01-30T12:35:01;16.30;;;10.87;;
3589;SDS011;1809;48.470;9.226;2024-01-30T12:37:27;19.43;;;11.10;;
3589;SDS011;1809;48.470;9.226;2024-01-30T12:39:54;10.47;;;8.00;;
3589;SDS011;1809;48.470;9.226;2024-01-30T12:42:20;12.97;;;8.10;;
3589;SDS011;1809;48.470;9.226;2024-01-30T12:44:47;9.73;;;6.13;;
3589;SDS011;1809;48.470;9.226;2024-01-30T12:47:12;10.00;;;5.60;;
3589;SDS011;1809;48.470;9.226;2024-01-30T12:49:38;10.83;;;5.87;;
3589;SDS011;1809;48.470;9.226;2024-01-30T12:52:03;10.20;;;7.30;;
3589;SDS011;1809;48.470;9.226;2024-01-30T12:54:29;18.13;;;8.00;;
3589;SDS011;1809;48.470;9.226;2024-01-30T12:56:54;9.97;;;6.80;;
3589;SDS011;1809;48.470;9.226;2024-01-30T12:59:21;8.27;;;7.37;;
3589;SDS011;1809;48.470;9.226;2024-01-30T13:01:46;14.60;;;9.03;;
3589;SDS011;1809;48.470;9.226;2024-01-30T13:04:11;9.47;;;7.17;;
3589;SDS011;1809;48.470;9.226;2024-01-30T13:06:37;16.13;;;9.60;;
3589;SDS011;1809;48.470;9.226;2024-01-30T13:09:02;8.73;;;6.37;;
3589;SDS011;1809;48.470;9.226;2024-01-30T13:11:28;9.83;;;5.60;;
3589;SDS011;1809;48.470;9.226;2024-01-30T13:13:53;27.57;;;7.33;;
3589;SDS011;1809;48.470;9.226;2024-01-30T13:16:19;7.93;;;7.10;;
3589;SDS011;1809;48.470;9.226;2024-01-30T13:18:44;19.67;;;6.83;;
3589;SDS011;1809;48.470;9.226;2024-01-30T13:21:10;4.80;;;4.30;;
3589;SDS011;1809;48.470;9.226;2024-01-30T13:23:35;10.83;;;5.20;;
3589;SDS011;1809;48.470;9.226;2024-01-30T13:26:00;5.33;;;4.20;;
3589;SDS011;1809;48.470;9.226;2024-01-30T13:28:26;8.23;;;5.70;;
3589;SDS011;1809;48.470;9.226;2024-01-30T13:30:51;7.73;;;6.20;;
3589;SDS011;1809;48.470;9.226;2024-01-30T13:33:17;9.97;;;5.30;;
3589;SDS011;1809;48.470;9.226;2024-01-30T13:35:42;8.90;;;3.87;;
3589;SDS011;1809;48.470;9.226;2024-01-30T13:38:07;8.17;;;5.00;;
3589;SDS011;1809;48.470;9.226;2024-01-30T13:40:33;5.70;;;3.90;;
3589;SDS011;1809;48.470;9.226;2024-01-30T13:42:58;14.07;;;3.67;;
3589;SDS011;1809;48.470;9.226;2024-01-30T13:45:23;10.97;;;3.93;;
3589;SDS011;1809;48.470;9.226;2024-01-30T13:47:49;12.90;;;4.93;;
3589;SDS011;1809;48.470;9.226;2024-01-30T13:50:14;5.03;;;3.50;;
3589;SDS011;1809;48.470;9.226;2024-01-30T13:52:41;6.43;;;4.13;;
3589;SDS011;1809;48.470;9.226;2024-01-30T13:55:08;8.93;;;4.27;;
3589;SDS011;1809;48.470;9.226;2024-01-30T13:57:33;6.77;;;6.10;;
3589;SDS011;1809;48.470;9.226;2024-01-30T14:00:01;6.03;;;5.50;;
3589;SDS011;1809;48.470;9.226;2024-01-30T14:02:26;8.70;;;7.30;;
3589;SDS011;1809;48.470;9.226;2024-01-30T14:04:52;8.60;;;3.33;;
3589;SDS011;1809;48.470;9.226;2024-01-30T14:07:17;4.70;;;4.10;;
3589;SDS011;1809;48.470;9.226;2024-01-30T14:09:43;4.87;;;3.13;;
3589;SDS011;1809;48.470;9.226;2024-01-30T14:12:09;3.17;;;2.97;;
3589;SDS011;1809;48.470;9.226;2024-01-30T14:14:34;5.33;;;3.10;;
3589;SDS011;1809;48.470;9.226;2024-01-30T14:17:00;11.20;;;3.90;;
3589;SDS011;1809;48.470;9.226;2024-01-30T14:19:25;4.40;;;2.90;;
3589;SDS011;1809;48.470;9.226;2024-01-30T14:21:50;6.63;;;4.10;;
3589;SDS011;1809;48.470;9.226;2024-01-30T14:24:16;7.50;;;4.30;;
3589;SDS011;1809;48.470;9.226;2024-01-30T14:26:41;11.87;;;4.30;;
3589;SDS011;1809;48.470;9.226;2024-01-30T14:29:07;6.20;;;3.53;;
3589;SDS011;1809;48.470;9.226;2024-01-30T14:31:33;4.77;;;4.37;;
3589;SDS011;1809;48.470;9.226;2024-01-30T14:33:58;7.30;;;3.70;;
3589;SDS011;1809;48.470;9.226;2024-01-30T14:36:24;5.77;;;3.00;;
3589;SDS011;1809;48.470;9.226;2024-01-30T14:38:52;5.63;;;4.40;;
3589;SDS011;1809;48.470;9.226;2024-01-30T14:41:18;13.33;;;4.10;;
3589;SDS011;1809;48.470;9.226;2024-01-30T14:43:43;10.20;;;4.20;;
3589;SDS011;1809;48.470;9.226;2024-01-30T14:46:09;4.83;;;3.53;;
3589;SDS011;1809;48.470;9.226;2024-01-30T14:48:34;27.77;;;4.90;;
3589;SDS011;1809;48.470;9.226;2024-01-30T14:51:00;12.50;;;3.77;;
3589;SDS011;1809;48.470;9.226;2024-01-30T14:53:25;13.10;;;4.00;;
3589;SDS011;1809;48.470;9.226;2024-01-30T14:55:50;8.43;;;4.33;;